createdAt,value
2019-01-03T00:01:05.391Z,8.65
2019-01-03T00:04:05.159Z,8.35
2019-01-03T00:07:05.046Z,9.55
2019-01-03T00:10:05.146Z,8.08
2019-01-03T00:13:03.128Z,8.78
2019-01-03T00:16:02.561Z,7.45
2019-01-03T00:19:01.798Z,7.67
2019-01-03T00:22:04.144Z,8.50
2019-01-03T00:24:58.400Z,6.72
2019-01-03T00:28:04.909Z,6.78
2019-01-03T00:31:04.660Z,7.70
2019-01-03T00:33:55.454Z,8.23
2019-01-03T00:36:57.646Z,8.05
2019-01-03T00:39:47.316Z,7.12
2019-01-03T00:42:46.740Z,6.35
2019-01-03T00:45:46.762Z,7.55
2019-01-03T00:48:45.934Z,8.35
2019-01-03T00:51:44.488Z,8.25
2019-01-03T00:54:49.981Z,8.93
2019-01-03T00:57:49.378Z,8.95
2019-01-03T01:00:46.816Z,7.75
2019-01-03T01:03:46.763Z,9.25
2019-01-03T01:06:52.623Z,8.48
2019-01-03T01:09:52.102Z,6.80
2019-01-03T01:12:52.199Z,7.60
2019-01-03T01:15:52.632Z,8.10
2019-01-03T01:18:59.074Z,8.40
2019-01-03T01:21:54.984Z,8.65
2019-01-03T01:24:54.947Z,8.98
2019-01-03T01:27:51.164Z,7.75
2019-01-03T01:30:50.932Z,8.13
2019-01-03T01:33:50.669Z,8.43
2019-01-03T01:36:49.992Z,9.23
2019-01-03T01:39:49.252Z,9.08
2019-01-03T01:42:48.791Z,9.00
2019-01-03T01:45:47.941Z,8.98
2019-01-03T01:48:47.359Z,9.98
2019-01-03T01:51:50.520Z,8.73
2019-01-03T01:54:50.405Z,7.70
2019-01-03T01:57:50.896Z,7.30
2019-01-03T02:00:56.812Z,6.90
2019-01-03T02:03:56.122Z,6.58
2019-01-03T02:06:55.222Z,8.35
2019-01-03T02:09:54.527Z,6.90
2019-01-03T02:13:00.988Z,7.37
2019-01-03T02:16:06.552Z,7.45
2019-01-03T02:19:05.833Z,6.10
2019-01-03T02:22:05.150Z,8.58
2019-01-03T02:25:08.351Z,7.72
2019-01-03T02:27:59.853Z,7.30
2019-01-03T02:30:59.453Z,6.92
2019-01-03T02:33:58.675Z,8.78
2019-01-03T02:36:57.366Z,7.92
2019-01-03T02:39:57.238Z,8.20
2019-01-03T02:42:56.432Z,8.33
2019-01-03T02:45:55.529Z,8.10
2019-01-03T02:48:50.141Z,9.25
2019-01-03T02:51:42.478Z,10.13
2019-01-03T02:54:29.688Z,9.43
2019-01-03T02:57:36.148Z,10.90
2019-01-03T03:00:36.124Z,9.70
2019-01-03T03:03:36.100Z,10.10
2019-01-03T03:06:35.444Z,10.28
2019-01-03T03:09:37.931Z,9.38
2019-01-03T03:12:37.793Z,10.25
2019-01-03T03:15:34.537Z,7.90
2019-01-03T03:18:34.432Z,9.40
2019-01-03T03:21:37.446Z,11.65
2019-01-03T03:24:42.444Z,15.70
2019-01-03T03:27:42.271Z,16.50
2019-01-03T03:30:42.506Z,13.70
2019-01-03T03:33:42.658Z,13.80
2019-01-03T03:36:43.503Z,10.68
2019-01-03T03:39:43.124Z,7.92
2019-01-03T03:42:43.222Z,8.80
2019-01-03T03:45:42.412Z,11.25
2019-01-03T03:48:42.472Z,9.75
2019-01-03T03:51:47.445Z,10.60
2019-01-03T03:54:48.665Z,9.60
2019-01-03T03:57:50.936Z,9.20
2019-01-03T04:00:50.238Z,8.93
2019-01-03T04:03:49.543Z,9.50
2019-01-03T04:06:55.123Z,8.95
2019-01-03T04:09:52.732Z,9.18
2019-01-03T04:12:52.084Z,8.83
2019-01-03T04:15:47.946Z,8.05
2019-01-03T04:18:47.460Z,7.53
2019-01-03T04:21:46.670Z,6.70
2019-01-03T04:24:45.944Z,7.22
2019-01-03T04:27:51.268Z,7.45
2019-01-03T04:30:50.483Z,7.00
2019-01-03T04:33:49.823Z,7.65
2019-01-03T04:36:49.110Z,6.95
2019-01-03T04:39:48.657Z,9.05
2019-01-03T04:42:48.719Z,8.38
2019-01-03T04:45:48.606Z,8.73
2019-01-03T04:48:48.021Z,7.92
2019-01-03T04:51:48.013Z,8.25
2019-01-03T04:54:47.151Z,6.75
2019-01-03T04:57:46.734Z,7.45
2019-01-03T05:00:45.804Z,8.38
2019-01-03T05:03:45.032Z,7.50
2019-01-03T05:06:42.283Z,8.60
2019-01-03T05:10:03.654Z,9.45
2019-01-03T05:13:05.847Z,9.03
2019-01-03T05:16:05.082Z,8.63
2019-01-03T05:19:10.268Z,8.10
2019-01-03T05:22:09.541Z,5.95
2019-01-03T05:25:08.671Z,6.50
2019-01-03T05:28:04.517Z,7.15
2019-01-03T05:30:43.718Z,7.33
2019-01-03T05:33:45.669Z,7.60
2019-01-03T05:36:31.433Z,7.55
2019-01-03T05:39:27.101Z,7.75
2019-01-03T05:42:26.785Z,8.13
2019-01-03T05:45:15.997Z,8.03
2019-01-03T05:48:22.692Z,9.00
2019-01-03T05:51:24.903Z,9.25
2019-01-03T05:54:24.378Z,9.38
2019-01-03T05:57:24.131Z,11.12
2019-01-03T06:00:24.448Z,9.98
2019-01-03T06:03:24.390Z,8.70
2019-01-03T06:06:14.604Z,11.28
2019-01-03T06:09:09.612Z,11.73
2019-01-03T06:12:09.128Z,13.60
2019-01-03T06:15:08.217Z,14.47
2019-01-03T06:18:11.057Z,15.03
2019-01-03T06:21:10.468Z,10.15
2019-01-03T06:24:09.801Z,9.70
2019-01-03T06:27:08.978Z,11.00
2019-01-03T06:30:08.196Z,8.03
2019-01-03T06:33:07.330Z,5.37
2019-01-03T06:36:06.718Z,4.78
2019-01-03T06:39:05.851Z,5.25
2019-01-03T06:42:05.084Z,5.50
2019-01-03T06:45:04.670Z,5.00
2019-01-03T06:48:04.568Z,7.53
2019-01-03T06:51:03.656Z,23.32
2019-01-03T06:54:02.770Z,22.22
2019-01-03T06:57:01.944Z,19.92
2019-01-03T07:00:07.442Z,19.95
2019-01-03T07:03:07.408Z,19.57
2019-01-03T07:06:06.599Z,21.02
2019-01-03T07:09:06.182Z,20.55
2019-01-03T07:12:08.655Z,21.15
2019-01-03T07:15:09.000Z,17.85
2019-01-03T07:18:08.943Z,17.73
2019-01-03T07:21:08.252Z,14.40
2019-01-03T07:24:08.809Z,13.00
2019-01-03T07:27:08.187Z,10.58
2019-01-03T07:30:08.241Z,7.92
2019-01-03T07:33:05.306Z,7.50
2019-01-03T07:36:04.881Z,7.25
2019-01-03T07:39:02.494Z,10.18
2019-01-03T07:42:29.477Z,9.85
2019-01-03T07:45:29.153Z,11.15
2019-01-03T07:48:28.358Z,10.60
2019-01-03T07:51:28.394Z,11.25
2019-01-03T07:54:32.241Z,12.95
2019-01-03T07:57:32.108Z,12.05
2019-01-03T08:00:36.697Z,11.68
2019-01-03T08:03:36.408Z,13.88
2019-01-03T08:06:35.531Z,16.40
2019-01-03T08:09:34.796Z,18.82
2019-01-03T08:12:33.963Z,34.87
2019-01-03T08:15:36.514Z,24.85
2019-01-03T08:18:36.450Z,18.92
2019-01-03T08:21:35.784Z,14.15
2019-01-03T08:24:36.722Z,19.90
2019-01-03T08:27:36.182Z,19.60
2019-01-03T08:30:36.336Z,20.60
2019-01-03T08:33:35.409Z,18.07
2019-01-03T08:36:35.315Z,16.37
2019-01-03T08:39:35.030Z,17.20
2019-01-03T08:42:35.060Z,20.60
2019-01-03T08:45:34.333Z,17.55
2019-01-03T08:48:33.497Z,20.90
2019-01-03T08:51:32.674Z,17.75
2019-01-03T08:54:31.824Z,17.32
2019-01-03T08:57:37.425Z,14.70
2019-01-03T09:00:37.368Z,28.17
2019-01-03T09:03:37.717Z,26.33
2019-01-03T09:06:41.996Z,17.67
2019-01-03T09:09:41.221Z,15.58
2019-01-03T09:12:47.708Z,15.45
2019-01-03T09:15:47.424Z,15.93
2019-01-03T09:18:47.465Z,16.07
2019-01-03T09:21:46.724Z,12.80
2019-01-03T09:24:45.866Z,11.83
2019-01-03T09:27:45.108Z,13.53
2019-01-03T09:30:44.477Z,11.63
2019-01-03T09:33:43.586Z,11.90
2019-01-03T09:36:42.878Z,11.65
2019-01-03T09:39:42.628Z,12.13
2019-01-03T09:42:42.584Z,12.00
2019-01-03T09:45:22.981Z,12.13
2019-01-03T09:48:03.560Z,9.95
2019-01-03T09:50:43.446Z,10.18
2019-01-03T09:53:23.529Z,11.97
2019-01-03T09:56:03.849Z,10.48
2019-01-03T09:58:43.313Z,10.70
2019-01-03T10:01:23.487Z,11.68
2019-01-03T10:04:03.648Z,13.32
2019-01-03T10:06:31.366Z,12.45
2019-01-03T10:09:18.330Z,13.53
2019-01-03T10:11:58.407Z,14.07
2019-01-03T10:14:38.377Z,17.85
2019-01-03T10:17:18.522Z,16.07
2019-01-03T10:19:58.893Z,27.48
2019-01-03T10:22:39.263Z,19.45
2019-01-03T10:25:19.204Z,20.17
2019-01-03T10:27:59.308Z,16.85
2019-01-03T10:30:39.597Z,11.90
2019-01-03T10:33:19.879Z,12.78
2019-01-03T10:35:59.976Z,11.10
2019-01-03T10:38:40.089Z,12.23
2019-01-03T10:41:19.962Z,13.20
2019-01-03T10:44:00.198Z,13.18
2019-01-03T10:46:40.116Z,11.68
2019-01-03T10:49:20.476Z,11.35
2019-01-03T10:52:00.464Z,12.07
2019-01-03T10:54:40.630Z,11.25
2019-01-03T10:57:20.626Z,11.30
2019-01-03T11:00:00.775Z,11.48
2019-01-03T11:02:40.856Z,10.95
2019-01-03T11:05:21.495Z,11.08
2019-01-03T11:08:02.047Z,11.20
2019-01-03T11:10:42.059Z,9.65
2019-01-03T11:13:22.556Z,12.80
2019-01-03T11:16:02.261Z,14.10
2019-01-03T11:18:43.403Z,13.70
2019-01-03T11:21:23.627Z,15.60
2019-01-03T11:24:03.545Z,15.25
2019-01-03T11:26:43.664Z,14.58
2019-01-03T11:29:24.883Z,14.73
2019-01-03T11:32:04.895Z,12.90
2019-01-03T11:34:45.169Z,16.00
2019-01-03T11:37:25.331Z,14.43
2019-01-03T11:40:05.519Z,13.25
2019-01-03T11:42:45.468Z,14.33
2019-01-03T11:45:25.575Z,12.65
2019-01-03T11:48:05.522Z,10.95
2019-01-03T11:50:45.487Z,13.00
2019-01-03T11:53:25.416Z,12.10
2019-01-03T11:56:05.550Z,11.18
2019-01-03T11:58:45.329Z,12.00
2019-01-03T12:01:25.832Z,12.65
2019-01-03T12:04:05.887Z,13.90
2019-01-03T12:06:46.298Z,14.40
2019-01-03T12:09:26.266Z,17.95
2019-01-03T12:12:06.325Z,16.25
2019-01-03T12:14:46.456Z,16.20
2019-01-03T12:17:26.499Z,14.83
2019-01-03T12:20:07.433Z,17.37
2019-01-03T12:22:48.413Z,16.10
2019-01-03T12:25:28.976Z,17.75
2019-01-03T12:28:09.153Z,16.60
2019-01-03T12:30:49.278Z,17.98
2019-01-03T12:33:29.108Z,20.85
2019-01-03T12:36:09.141Z,17.77
2019-01-03T12:38:49.437Z,16.77
2019-01-03T12:41:29.289Z,18.98
2019-01-03T12:44:09.590Z,16.20
2019-01-03T12:46:49.642Z,14.90
2019-01-03T12:49:29.910Z,12.82
2019-01-03T12:52:09.603Z,12.50
2019-01-03T12:54:51.040Z,12.68
2019-01-03T12:57:31.170Z,12.40
2019-01-03T13:00:12.023Z,11.12
2019-01-03T13:02:52.738Z,11.40
2019-01-03T13:05:32.448Z,15.65
2019-01-03T13:08:12.682Z,17.50
2019-01-03T13:10:52.533Z,18.95
2019-01-03T13:13:32.704Z,18.95
2019-01-03T13:16:12.538Z,16.65
2019-01-03T13:18:53.397Z,16.55
2019-01-03T13:21:34.073Z,17.62
2019-01-03T13:24:13.984Z,14.80
2019-01-03T13:26:54.328Z,12.82
2019-01-03T13:29:34.348Z,15.05
2019-01-03T13:32:14.480Z,17.12
2019-01-03T13:34:54.774Z,18.60
2019-01-03T13:37:34.701Z,17.77
2019-01-03T13:40:15.658Z,16.42
2019-01-03T13:42:55.693Z,18.60
2019-01-03T13:45:35.674Z,16.27
2019-01-03T13:48:15.960Z,17.62
2019-01-03T13:50:56.320Z,17.52
2019-01-03T13:53:36.228Z,15.38
2019-01-03T13:56:16.379Z,16.77
2019-01-03T13:58:56.505Z,16.00
2019-01-03T14:01:38.068Z,15.68
2019-01-03T14:04:17.822Z,18.52
2019-01-03T14:06:58.103Z,15.72
2019-01-03T14:09:38.303Z,18.52
2019-01-03T14:12:18.301Z,18.42
2019-01-03T14:14:58.645Z,16.90
2019-01-03T14:17:38.790Z,15.13
2019-01-03T14:20:18.897Z,16.65
2019-01-03T14:22:59.089Z,16.82
2019-01-03T14:25:39.852Z,16.55
2019-01-03T14:28:19.682Z,15.98
2019-01-03T14:31:02.883Z,15.78
2019-01-03T14:33:43.026Z,17.00
2019-01-03T14:36:23.146Z,16.48
2019-01-03T14:39:04.364Z,14.85
2019-01-03T14:41:44.647Z,15.32
2019-01-03T14:44:24.642Z,16.15
2019-01-03T14:47:04.862Z,15.40
2019-01-03T14:49:44.808Z,14.85
2019-01-03T14:52:24.691Z,15.28
2019-01-03T14:55:05.253Z,15.18
2019-01-03T14:57:44.724Z,15.10
2019-01-03T15:00:24.938Z,14.28
2019-01-03T15:03:04.778Z,15.15
2019-01-03T15:05:44.840Z,16.02
2019-01-03T15:08:24.897Z,15.23
2019-01-03T15:11:04.817Z,16.02
2019-01-03T15:13:44.893Z,14.15
2019-01-03T15:16:24.866Z,14.20
2019-01-03T15:19:05.051Z,13.62
2019-01-03T15:21:45.417Z,14.45
2019-01-03T15:24:25.622Z,15.83
2019-01-03T15:27:05.741Z,18.37
2019-01-03T15:29:46.029Z,15.65
2019-01-03T15:32:25.992Z,14.23
2019-01-03T15:35:06.214Z,15.58
2019-01-03T15:37:45.984Z,14.45
2019-01-03T15:40:26.072Z,14.68
2019-01-03T15:43:06.192Z,16.60
2019-01-03T15:45:46.170Z,18.00
2019-01-03T15:48:26.408Z,17.52
2019-01-03T15:51:06.416Z,13.38
2019-01-03T15:53:46.455Z,11.70
2019-01-03T15:56:26.856Z,10.80
2019-01-03T15:59:06.900Z,11.65
2019-01-03T16:01:47.042Z,13.18
2019-01-03T16:04:27.102Z,14.13
2019-01-03T16:07:07.160Z,14.65
2019-01-03T16:09:47.688Z,13.53
2019-01-03T16:12:27.460Z,9.58
2019-01-03T16:15:07.601Z,10.38
2019-01-03T16:17:47.575Z,9.98
2019-01-03T16:20:27.887Z,10.88
2019-01-03T16:23:08.187Z,8.70
2019-01-03T16:25:48.040Z,9.93
2019-01-03T16:28:28.402Z,21.93
2019-01-03T16:31:08.360Z,18.60
2019-01-03T16:33:48.436Z,16.42
2019-01-03T16:36:28.626Z,14.35
2019-01-03T16:39:08.841Z,14.63
2019-01-03T16:41:48.850Z,12.05
2019-01-03T16:44:28.914Z,11.08
2019-01-03T16:47:09.717Z,12.98
2019-01-03T16:49:49.322Z,11.35
2019-01-03T16:52:29.658Z,11.83
2019-01-03T16:55:09.742Z,14.63
2019-01-03T16:57:49.704Z,16.48
2019-01-03T17:00:30.172Z,15.05
2019-01-03T17:03:10.130Z,14.23
2019-01-03T17:05:50.257Z,8.85
2019-01-03T17:08:31.109Z,8.33
2019-01-03T17:11:11.461Z,12.65
2019-01-03T17:13:51.391Z,13.05
2019-01-03T17:16:31.828Z,16.85
2019-01-03T17:19:11.727Z,16.10
2019-01-03T17:21:49.686Z,13.13
2019-01-03T17:24:29.663Z,12.85
2019-01-03T17:27:09.605Z,12.90
2019-01-03T17:29:49.658Z,13.15
2019-01-03T17:32:29.620Z,11.20
2019-01-03T17:35:09.800Z,11.43
2019-01-03T17:37:49.845Z,9.80
2019-01-03T17:40:30.301Z,10.45
2019-01-03T17:43:09.996Z,9.63
2019-01-03T17:45:50.152Z,9.35
2019-01-03T17:48:30.051Z,8.60
2019-01-03T17:51:10.524Z,8.73
2019-01-03T17:53:50.271Z,11.12
2019-01-03T17:56:30.660Z,12.58
2019-01-03T17:59:10.516Z,10.82
2019-01-03T18:01:50.957Z,11.03
2019-01-03T18:04:30.563Z,12.03
2019-01-03T18:07:10.914Z,15.32
2019-01-03T18:09:51.039Z,20.97
2019-01-03T18:12:31.058Z,20.72
2019-01-03T18:15:11.131Z,21.52
2019-01-03T18:17:51.732Z,20.12
2019-01-03T18:20:33.135Z,20.95
2019-01-03T18:23:13.684Z,13.88
2019-01-03T18:25:53.920Z,9.60
2019-01-03T18:28:34.360Z,9.00
2019-01-03T18:31:14.356Z,11.10
2019-01-03T18:33:54.097Z,19.02
2019-01-03T18:36:34.488Z,34.40
2019-01-03T18:39:14.324Z,32.60
2019-01-03T18:41:54.494Z,28.35
2019-01-03T18:44:34.740Z,29.30
2019-01-03T18:47:14.727Z,28.25
2019-01-03T18:49:55.058Z,25.82
2019-01-03T18:52:35.204Z,16.50
2019-01-03T18:55:15.440Z,14.20
2019-01-03T18:57:55.240Z,11.25
2019-01-03T19:00:35.511Z,9.95
2019-01-03T19:03:03.182Z,11.70
2019-01-03T19:05:50.145Z,14.47
2019-01-03T19:08:30.860Z,12.80
2019-01-03T19:11:10.836Z,14.38
2019-01-03T19:13:50.477Z,15.30
2019-01-03T19:16:30.464Z,14.47
2019-01-03T19:19:10.590Z,16.87
2019-01-03T19:21:50.841Z,17.12
2019-01-03T19:24:30.820Z,14.70
2019-01-03T19:27:11.614Z,16.25
2019-01-03T19:29:51.719Z,15.78
2019-01-03T19:32:31.516Z,17.60
2019-01-03T19:35:11.462Z,19.27
2019-01-03T19:37:51.864Z,18.87
2019-01-03T19:40:31.879Z,14.90
2019-01-03T19:43:12.194Z,15.43
2019-01-03T19:45:52.207Z,16.57
2019-01-03T19:48:32.636Z,17.12
2019-01-03T19:51:12.385Z,18.10
2019-01-03T19:53:52.384Z,15.78
2019-01-03T19:56:32.766Z,11.88
2019-01-03T19:59:12.858Z,12.18
2019-01-03T20:01:52.485Z,11.65
2019-01-03T20:04:32.885Z,11.68
2019-01-03T20:07:12.775Z,10.30
2019-01-03T20:09:53.585Z,10.05
2019-01-03T20:12:33.200Z,10.28
2019-01-03T20:15:13.497Z,11.40
2019-01-03T20:17:53.834Z,12.07
2019-01-03T20:20:33.909Z,13.70
2019-01-03T20:23:13.968Z,14.40
2019-01-03T20:25:53.985Z,15.00
2019-01-03T20:28:34.144Z,15.40
2019-01-03T20:31:14.292Z,15.63
2019-01-03T20:33:54.443Z,14.78
2019-01-03T20:36:34.195Z,15.25
2019-01-03T20:39:14.024Z,17.80
2019-01-03T20:41:54.078Z,17.87
2019-01-03T20:44:34.426Z,19.70
2019-01-03T20:47:14.513Z,20.05
2019-01-03T20:49:54.800Z,21.00
2019-01-03T20:52:34.725Z,22.82
2019-01-03T20:55:14.921Z,24.43
2019-01-03T20:57:55.040Z,20.70
2019-01-03T21:00:35.306Z,20.17
2019-01-03T21:03:15.392Z,20.65
2019-01-03T21:05:55.400Z,18.60
2019-01-03T21:08:35.403Z,17.23
2019-01-03T21:11:16.008Z,19.50
2019-01-03T21:13:55.720Z,21.42
2019-01-03T21:16:35.760Z,21.97
2019-01-03T21:19:15.880Z,19.90
2019-01-03T21:21:55.668Z,22.80
2019-01-03T21:24:35.510Z,20.37
2019-01-03T21:27:15.515Z,22.17
2019-01-03T21:29:55.969Z,20.95
2019-01-03T21:32:36.140Z,20.37
2019-01-03T21:35:15.914Z,17.70
2019-01-03T21:37:55.970Z,18.32
2019-01-03T21:40:36.085Z,21.05
2019-01-03T21:43:16.081Z,19.73
2019-01-03T21:45:56.185Z,20.15
2019-01-03T21:48:36.243Z,20.43
2019-01-03T21:51:16.374Z,19.07
2019-01-03T21:53:57.547Z,19.67
2019-01-03T21:56:37.563Z,16.93
2019-01-03T21:59:17.970Z,15.40
2019-01-03T22:01:57.976Z,14.55
2019-01-03T22:04:37.960Z,12.18
2019-01-03T22:07:18.026Z,12.68
2019-01-03T22:09:58.088Z,13.05
2019-01-03T22:12:38.265Z,14.03
2019-01-03T22:15:18.336Z,15.10
2019-01-03T22:17:58.307Z,14.35
2019-01-03T22:20:38.938Z,18.02
2019-01-03T22:23:18.554Z,17.40
2019-01-03T22:25:58.465Z,16.95
2019-01-03T22:28:38.533Z,20.95
2019-01-03T22:31:19.996Z,18.20
2019-01-03T22:33:59.916Z,22.45
2019-01-03T22:36:39.918Z,20.65
2019-01-03T22:39:19.973Z,18.45
2019-01-03T22:42:00.216Z,15.88
2019-01-03T22:44:39.863Z,15.98
2019-01-03T22:47:20.542Z,25.45
2019-01-03T22:50:00.174Z,15.53
2019-01-03T22:52:40.099Z,13.62
2019-01-03T22:55:20.264Z,15.90
2019-01-03T22:58:01.784Z,19.90
2019-01-03T23:00:41.945Z,17.82
2019-01-03T23:03:22.852Z,16.55
2019-01-03T23:06:03.564Z,15.98
2019-01-03T23:08:43.191Z,16.25
2019-01-03T23:11:23.020Z,15.48
2019-01-03T23:14:03.052Z,15.98
2019-01-03T23:16:43.114Z,15.45
2019-01-03T23:19:23.292Z,14.60
2019-01-03T23:22:03.262Z,15.48
2019-01-03T23:24:43.195Z,16.17
2019-01-03T23:27:23.488Z,16.35
2019-01-03T23:30:03.657Z,16.00
2019-01-03T23:32:43.592Z,17.37
2019-01-03T23:35:23.563Z,16.40
2019-01-03T23:38:03.744Z,17.25
2019-01-03T23:40:44.084Z,16.48
2019-01-03T23:43:24.429Z,15.80
2019-01-03T23:46:04.632Z,16.73
2019-01-03T23:48:45.491Z,16.05
2019-01-03T23:51:25.414Z,14.63
2019-01-03T23:54:05.428Z,15.45
2019-01-03T23:56:45.670Z,15.50
2019-01-03T23:59:25.955Z,15.95
